createdAt,value
2018-03-21T00:02:03.981Z,-6.70
2018-03-21T00:04:31.577Z,-6.70
2018-03-21T00:07:00.128Z,-6.70
2018-03-21T00:09:27.725Z,-6.70
2018-03-21T00:11:55.569Z,-6.80
2018-03-21T00:14:24.200Z,-6.70
2018-03-21T00:16:52.084Z,-6.70
2018-03-21T00:19:19.662Z,-6.80
2018-03-21T00:21:47.275Z,-7.00
2018-03-21T00:24:15.104Z,-7.00
2018-03-21T00:26:43.526Z,-6.90
2018-03-21T00:29:11.429Z,-6.90
2018-03-21T00:31:39.770Z,-6.80
2018-03-21T00:34:07.383Z,-6.90
2018-03-21T00:36:36.089Z,-7.10
2018-03-21T00:39:03.700Z,-7.10
2018-03-21T00:41:31.571Z,-7.20
2018-03-21T00:43:59.167Z,-7.30
2018-03-21T00:46:26.855Z,-7.30
2018-03-21T00:48:54.598Z,-7.40
2018-03-21T00:51:22.395Z,-7.40
2018-03-21T00:53:49.960Z,-7.60
2018-03-21T00:56:17.944Z,-7.60
2018-03-21T00:58:45.650Z,-7.60
2018-03-21T01:01:13.209Z,-7.60
2018-03-21T01:03:41.132Z,-7.60
2018-03-21T01:06:09.041Z,-7.50
2018-03-21T01:08:36.619Z,-7.40
2018-03-21T01:11:04.214Z,-7.60
2018-03-21T01:13:33.670Z,-7.50
2018-03-21T01:16:01.231Z,-7.50
2018-03-21T01:18:28.786Z,-7.70
2018-03-21T01:20:56.533Z,-7.80
2018-03-21T01:23:24.266Z,-7.80
2018-03-21T01:25:52.077Z,-7.90
2018-03-21T01:28:19.988Z,-8.10
2018-03-21T01:30:48.050Z,-8.20
2018-03-21T01:33:15.602Z,-8.20
2018-03-21T01:35:43.376Z,-8.20
2018-03-21T01:38:11.218Z,-8.00
2018-03-21T01:40:38.782Z,-7.90
2018-03-21T01:43:06.589Z,-7.80
2018-03-21T01:45:34.915Z,-7.80
2018-03-21T01:48:02.661Z,-7.80
2018-03-21T01:50:30.546Z,-7.80
2018-03-21T01:53:10.050Z,-7.90
2018-03-21T01:55:37.940Z,-7.70
2018-03-21T01:58:05.582Z,-7.50
2018-03-21T02:00:33.294Z,-7.40
2018-03-21T02:03:01.272Z,-7.40
2018-03-21T02:05:29.598Z,-7.40
2018-03-21T02:07:57.471Z,-7.40
2018-03-21T02:10:25.223Z,-7.40
2018-03-21T02:12:52.996Z,-7.60
2018-03-21T02:15:20.896Z,-7.80
2018-03-21T02:17:48.544Z,-7.90
2018-03-21T02:20:16.098Z,-7.80
2018-03-21T02:22:43.881Z,-7.70
2018-03-21T02:25:11.739Z,-7.70
2018-03-21T02:27:39.289Z,-7.80
2018-03-21T02:30:06.853Z,-7.90
2018-03-21T02:32:34.782Z,-8.00
2018-03-21T02:35:02.538Z,-8.00
2018-03-21T02:37:30.106Z,-8.20
2018-03-21T02:39:57.905Z,-8.30
2018-03-21T02:42:25.613Z,-8.30
2018-03-21T02:44:53.637Z,-8.30
2018-03-21T02:47:21.502Z,-8.50
2018-03-21T02:49:49.570Z,-8.50
2018-03-21T02:52:17.153Z,-8.40
2018-03-21T02:54:45.089Z,-8.30
2018-03-21T02:57:12.909Z,-8.40
2018-03-21T02:59:40.458Z,-8.40
2018-03-21T03:02:08.118Z,-8.30
2018-03-21T03:04:36.709Z,-8.60
2018-03-21T03:07:04.490Z,-8.60
2018-03-21T03:09:32.171Z,-8.60
2018-03-21T03:11:59.754Z,-8.50
2018-03-21T03:14:27.303Z,-8.40
2018-03-21T03:16:55.069Z,-8.20
2018-03-21T03:19:22.679Z,-8.00
2018-03-21T03:21:50.226Z,-7.80
2018-03-21T03:24:18.761Z,-7.60
2018-03-21T03:26:46.375Z,-7.60
2018-03-21T03:29:14.398Z,-7.50
2018-03-21T03:31:42.214Z,-7.40
2018-03-21T03:34:09.761Z,-7.40
2018-03-21T03:36:37.333Z,-7.30
2018-03-21T03:39:05.082Z,-7.20
2018-03-21T03:41:32.702Z,-7.00
2018-03-21T03:44:00.250Z,-6.70
2018-03-21T03:46:28.017Z,-6.70
2018-03-21T03:48:55.689Z,-6.80
2018-03-21T03:51:23.702Z,-6.60
2018-03-21T03:53:51.900Z,-6.60
2018-03-21T03:56:19.462Z,-6.50
2018-03-21T03:58:47.012Z,-6.40
2018-03-21T04:01:14.635Z,-6.40
2018-03-21T04:03:42.965Z,-6.30
2018-03-21T04:06:10.523Z,-6.30
2018-03-21T04:08:38.136Z,-6.20
2018-03-21T04:11:05.684Z,-6.10
2018-03-21T04:13:34.079Z,-5.90
2018-03-21T04:16:01.674Z,-6.00
2018-03-21T04:18:29.217Z,-5.90
2018-03-21T04:20:56.779Z,-5.80
2018-03-21T04:23:24.606Z,-5.80
2018-03-21T04:25:52.998Z,-5.80
2018-03-21T04:28:20.566Z,-5.80
2018-03-21T04:30:48.375Z,-5.80
2018-03-21T04:33:15.921Z,-5.70
2018-03-21T04:35:43.660Z,-5.70
2018-03-21T04:38:11.350Z,-5.80
2018-03-21T04:40:39.185Z,-5.80
2018-03-21T04:43:06.909Z,-5.70
2018-03-21T04:45:35.553Z,-5.70
2018-03-21T04:48:03.111Z,-5.80
2018-03-21T04:50:30.705Z,-5.70
2018-03-21T04:52:59.399Z,-5.40
2018-03-21T04:55:27.822Z,-5.40
2018-03-21T04:57:55.385Z,-5.40
2018-03-21T05:00:23.209Z,-5.40
2018-03-21T05:02:50.770Z,-5.30
2018-03-21T05:05:18.333Z,-5.30
2018-03-21T05:07:45.914Z,-5.30
2018-03-21T05:10:13.462Z,-5.30
2018-03-21T05:12:41.069Z,-5.20
2018-03-21T05:15:08.681Z,-5.20
2018-03-21T05:17:36.234Z,-5.20
2018-03-21T05:20:03.811Z,-5.20
2018-03-21T05:22:31.417Z,-5.20
2018-03-21T05:24:59.013Z,-5.10
2018-03-21T05:27:27.306Z,-5.00
2018-03-21T05:29:54.890Z,-5.00
2018-03-21T05:32:22.442Z,-4.90
2018-03-21T05:34:50.003Z,-4.90
2018-03-21T05:37:17.683Z,-4.90
2018-03-21T05:39:45.547Z,-4.90
2018-03-21T05:42:13.104Z,-5.00
2018-03-21T05:44:40.716Z,-4.90
2018-03-21T05:47:08.263Z,-4.90
2018-03-21T05:49:35.814Z,-4.80
2018-03-21T05:52:03.487Z,-4.80
2018-03-21T05:54:31.460Z,-4.80
2018-03-21T05:56:59.577Z,-4.80
2018-03-21T05:59:27.437Z,-4.80
2018-03-21T06:01:54.997Z,-4.80
2018-03-21T06:04:24.152Z,-4.60
2018-03-21T06:06:51.848Z,-4.70
2018-03-21T06:09:19.707Z,-4.60
2018-03-21T06:11:47.513Z,-4.60
2018-03-21T06:14:15.143Z,-4.60
2018-03-21T06:16:42.708Z,-4.60
2018-03-21T06:19:10.394Z,-4.60
2018-03-21T06:21:38.218Z,-4.70
2018-03-21T06:24:05.848Z,-4.70
2018-03-21T06:26:33.481Z,-4.70
2018-03-21T06:29:01.190Z,-4.40
2018-03-21T06:31:29.009Z,-4.30
2018-03-21T06:33:56.561Z,-4.10
2018-03-21T06:36:24.391Z,-4.20
2018-03-21T06:38:52.269Z,-4.20
2018-03-21T06:41:19.825Z,-4.10
2018-03-21T06:43:47.438Z,-4.20
2018-03-21T06:46:15.236Z,-4.10
2018-03-21T06:48:43.064Z,-4.00
2018-03-21T06:51:10.793Z,-4.00
2018-03-21T06:53:39.120Z,-4.00
2018-03-21T06:56:06.868Z,-4.00
2018-03-21T06:58:34.775Z,-3.90
2018-03-21T07:01:02.583Z,-3.70
2018-03-21T07:03:30.462Z,-3.70
2018-03-21T07:05:58.166Z,-3.60
2018-03-21T07:08:25.750Z,-3.50
2018-03-21T07:10:53.479Z,-3.40
2018-03-21T07:13:21.100Z,-3.30
2018-03-21T07:16:00.508Z,-3.20
2018-03-21T07:18:29.150Z,-2.80
2018-03-21T07:20:56.990Z,-2.80
2018-03-21T07:23:24.550Z,-2.80
2018-03-21T07:25:52.154Z,-2.70
2018-03-21T07:28:20.529Z,-2.30
2018-03-21T07:30:48.084Z,-2.30
2018-03-21T07:33:15.876Z,-2.10
2018-03-21T07:35:43.494Z,-2.20
2018-03-21T07:38:11.201Z,-2.20
2018-03-21T07:40:38.964Z,-2.30
2018-03-21T07:43:06.534Z,-2.30
2018-03-21T07:45:34.085Z,-2.10
2018-03-21T07:48:01.898Z,-2.00
2018-03-21T07:50:29.450Z,-2.10
2018-03-21T07:52:57.225Z,-2.10
2018-03-21T07:55:24.817Z,-2.30
2018-03-21T07:57:52.509Z,-2.30
2018-03-21T08:00:20.209Z,-2.40
2018-03-21T08:02:47.793Z,-2.30
2018-03-21T08:05:15.354Z,-2.40
2018-03-21T08:07:43.344Z,-2.40
2018-03-21T08:10:11.052Z,-2.40
2018-03-21T08:12:38.602Z,-2.60
2018-03-21T08:15:06.154Z,-2.40
2018-03-21T08:17:33.850Z,-2.40
2018-03-21T08:20:02.172Z,-2.60
2018-03-21T08:22:29.722Z,-2.60
2018-03-21T08:24:57.322Z,-2.70
2018-03-21T08:27:25.053Z,-2.50
2018-03-21T08:29:52.618Z,-2.40
2018-03-21T08:32:20.258Z,-2.40
2018-03-21T08:34:47.819Z,-2.10
2018-03-21T08:37:15.478Z,-2.00
2018-03-21T08:39:43.082Z,-1.90
2018-03-21T08:42:10.638Z,-2.10
2018-03-21T08:44:38.191Z,-1.90
2018-03-21T08:47:05.790Z,-1.90
2018-03-21T08:49:34.107Z,-1.60
2018-03-21T08:52:01.693Z,-1.60
2018-03-21T08:54:30.235Z,-1.20
2018-03-21T08:56:57.790Z,-1.30
2018-03-21T08:59:25.446Z,-1.40
2018-03-21T09:01:53.049Z,-1.10
2018-03-21T09:04:20.602Z,-1.00
2018-03-21T09:06:48.219Z,-1.10
2018-03-21T09:09:15.986Z,-1.30
2018-03-21T09:11:43.583Z,-1.20
2018-03-21T09:14:11.149Z,-1.20
2018-03-21T09:16:38.740Z,-0.90
2018-03-21T09:19:07.054Z,-1.40
2018-03-21T09:21:34.607Z,-1.40
2018-03-21T09:24:02.198Z,-1.50
2018-03-21T09:26:29.810Z,-0.70
2018-03-21T09:31:48.523Z,1.00
2018-03-21T09:34:16.306Z,2.40
2018-03-21T09:36:43.857Z,2.20
2018-03-21T09:39:11.457Z,2.80
2018-03-21T09:41:39.449Z,2.90
2018-03-21T09:44:07.011Z,2.60
2018-03-21T09:46:34.779Z,3.00
2018-03-21T09:49:02.669Z,2.90
2018-03-21T09:51:30.215Z,3.00
2018-03-21T09:53:57.922Z,2.80
2018-03-21T09:56:25.638Z,1.50
2018-03-21T09:58:53.337Z,1.90
2018-03-21T10:01:21.747Z,2.80
2018-03-21T10:03:49.475Z,2.70
2018-03-21T10:06:17.864Z,2.00
2018-03-21T10:08:45.738Z,2.00
2018-03-21T10:11:13.327Z,2.70
2018-03-21T10:13:40.929Z,2.30
2018-03-21T10:16:08.559Z,2.40
2018-03-21T10:18:36.105Z,2.60
2018-03-21T10:21:03.664Z,2.10
2018-03-21T10:23:31.379Z,1.40
2018-03-21T10:25:58.978Z,2.70
2018-03-21T10:28:26.618Z,3.00
2018-03-21T10:30:54.202Z,2.50
2018-03-21T10:33:21.787Z,1.70
2018-03-21T10:35:49.458Z,1.50
2018-03-21T10:38:17.808Z,2.90
2018-03-21T10:40:45.354Z,2.90
2018-03-21T10:43:12.922Z,1.40
2018-03-21T10:45:40.563Z,2.00
2018-03-21T10:48:08.330Z,1.90
2018-03-21T10:50:36.186Z,2.30
2018-03-21T10:53:03.802Z,1.30
2018-03-21T10:55:31.362Z,0.90
2018-03-21T10:57:59.699Z,2.60
2018-03-21T11:00:27.481Z,2.60
2018-03-21T11:03:08.016Z,1.50
2018-03-21T11:05:35.610Z,0.40
2018-03-21T11:08:03.298Z,0.60
2018-03-21T11:10:30.847Z,0.70
2018-03-21T11:12:59.251Z,3.40
2018-03-21T11:15:27.156Z,3.40
2018-03-21T11:17:54.702Z,4.30
2018-03-21T11:20:22.315Z,4.10
2018-03-21T11:22:50.903Z,2.30
2018-03-21T11:25:18.446Z,2.30
2018-03-21T11:27:46.306Z,1.50
2018-03-21T11:30:14.635Z,1.00
2018-03-21T11:32:42.183Z,1.00
2018-03-21T11:35:09.856Z,1.70
2018-03-21T11:37:37.495Z,1.80
2018-03-21T11:40:05.058Z,2.40
2018-03-21T11:42:32.631Z,3.40
2018-03-21T11:45:00.522Z,3.50
2018-03-21T11:47:28.042Z,3.40
2018-03-21T11:49:55.989Z,2.90
2018-03-21T11:52:23.629Z,2.80
2018-03-21T11:54:51.317Z,1.70
2018-03-21T11:57:19.079Z,1.60
2018-03-21T11:59:46.699Z,1.40
2018-03-21T12:02:15.178Z,1.70
2018-03-21T12:04:42.788Z,1.60
2018-03-21T12:07:10.357Z,1.20
2018-03-21T12:09:37.913Z,0.10
2018-03-21T12:12:05.502Z,0.50
2018-03-21T12:14:33.062Z,0.20
2018-03-21T12:17:00.615Z,0.90
2018-03-21T12:19:28.467Z,1.90
2018-03-21T12:21:56.021Z,2.00
2018-03-21T12:24:23.580Z,1.50
2018-03-21T12:26:51.170Z,1.10
2018-03-21T12:29:18.730Z,1.50
2018-03-21T12:31:46.275Z,1.20
2018-03-21T12:34:13.851Z,1.20
2018-03-21T12:36:41.748Z,1.10
2018-03-21T12:39:09.343Z,1.30
2018-03-21T12:41:36.993Z,1.20
2018-03-21T12:44:04.565Z,2.00
2018-03-21T12:46:32.259Z,2.90
2018-03-21T12:49:00.610Z,3.80
2018-03-21T12:51:28.191Z,3.80
2018-03-21T12:53:55.809Z,3.20
2018-03-21T12:56:23.660Z,3.10
2018-03-21T12:58:51.339Z,4.20
2018-03-21T13:01:18.882Z,3.30
2018-03-21T13:03:46.461Z,2.40
2018-03-21T13:06:14.002Z,4.20
2018-03-21T13:08:41.777Z,3.70
2018-03-21T13:11:09.363Z,4.20
2018-03-21T13:13:36.953Z,2.90
2018-03-21T13:16:05.268Z,1.50
2018-03-21T13:18:33.086Z,1.50
2018-03-21T13:21:01.721Z,0.90
2018-03-21T13:23:29.354Z,0.90
2018-03-21T13:25:57.209Z,0.80
2018-03-21T13:28:25.149Z,0.50
2018-03-21T13:30:52.745Z,0.60
2018-03-21T13:33:20.450Z,1.70
2018-03-21T13:35:47.991Z,1.50
2018-03-21T13:38:15.597Z,0.50
2018-03-21T13:40:43.214Z,0.60
2018-03-21T13:43:10.768Z,0.80
2018-03-21T13:45:38.330Z,0.60
2018-03-21T13:48:06.907Z,0.30
2018-03-21T13:50:34.501Z,-0.20
2018-03-21T13:53:02.335Z,0.10
2018-03-21T13:55:30.095Z,0.20
2018-03-21T13:57:57.651Z,0.30
2018-03-21T14:00:25.518Z,0.80
2018-03-21T14:02:53.132Z,1.10
2018-03-21T14:05:20.723Z,1.10
2018-03-21T14:07:48.548Z,1.30
2018-03-21T14:10:16.939Z,0.70
2018-03-21T14:12:44.660Z,0.60
2018-03-21T14:15:12.330Z,0.20
2018-03-21T14:17:40.043Z,-0.10
2018-03-21T14:20:07.806Z,-0.10
2018-03-21T14:22:35.525Z,-0.30
2018-03-21T14:25:03.122Z,-0.60
2018-03-21T14:27:30.691Z,-0.60
2018-03-21T14:29:58.258Z,-0.60
2018-03-21T14:32:25.862Z,-0.40
2018-03-21T14:34:53.410Z,0.00
2018-03-21T14:37:21.452Z,-0.30
2018-03-21T14:39:49.042Z,-0.40
2018-03-21T14:42:16.749Z,-0.30
2018-03-21T14:44:44.308Z,-0.40
2018-03-21T14:47:12.024Z,-0.40
2018-03-21T14:49:39.590Z,-0.40
2018-03-21T14:52:08.499Z,-0.10
2018-03-21T14:54:36.965Z,-0.10
2018-03-21T14:57:05.386Z,0.00
2018-03-21T14:59:32.967Z,0.00
2018-03-21T15:02:00.551Z,-0.20
2018-03-21T15:04:28.131Z,-0.20
2018-03-21T15:06:55.694Z,-0.40
2018-03-21T15:09:23.324Z,-0.30
2018-03-21T15:11:51.159Z,-0.20
2018-03-21T15:14:18.726Z,-0.30
2018-03-21T15:16:46.355Z,-0.40
2018-03-21T15:19:14.277Z,-0.60
2018-03-21T15:21:41.807Z,-0.50
2018-03-21T15:24:09.692Z,-0.50
2018-03-21T15:26:37.289Z,-0.40
2018-03-21T15:29:05.046Z,-0.10
2018-03-21T15:31:32.950Z,0.00
2018-03-21T15:34:00.767Z,-0.10
2018-03-21T15:36:29.090Z,-0.10
2018-03-21T15:38:57.095Z,-0.20
2018-03-21T15:41:24.704Z,-0.40
2018-03-21T15:43:52.336Z,-0.60
2018-03-21T15:46:19.918Z,-0.60
2018-03-21T15:48:47.646Z,-0.70
2018-03-21T15:51:15.219Z,-0.60
2018-03-21T15:53:43.889Z,-0.70
2018-03-21T15:56:11.459Z,-0.70
2018-03-21T15:58:39.411Z,-0.70
2018-03-21T16:01:07.322Z,-0.60
2018-03-21T16:03:35.144Z,-0.50
2018-03-21T16:06:02.715Z,-0.50
2018-03-21T16:08:30.456Z,-0.50
2018-03-21T16:10:58.011Z,-0.50
2018-03-21T16:13:25.581Z,-0.50
2018-03-21T16:15:53.278Z,-0.50
2018-03-21T16:18:21.067Z,-0.60
2018-03-21T16:20:48.832Z,-0.60
2018-03-21T16:23:16.442Z,-0.60
2018-03-21T16:25:44.797Z,-0.80
2018-03-21T16:28:14.162Z,-0.90
2018-03-21T16:30:42.033Z,-0.90
2018-03-21T16:33:09.729Z,-0.90
2018-03-21T16:35:37.295Z,-0.90
2018-03-21T16:38:04.914Z,-0.90
2018-03-21T16:40:32.971Z,-1.00
2018-03-21T16:43:00.739Z,-1.00
2018-03-21T16:45:28.371Z,-1.00
2018-03-21T16:47:55.946Z,-1.20
2018-03-21T16:50:23.533Z,-1.20
2018-03-21T16:52:51.222Z,-1.40
2018-03-21T16:55:19.560Z,-1.90
2018-03-21T16:57:47.112Z,-1.90
2018-03-21T17:00:15.037Z,-2.00
2018-03-21T17:02:43.464Z,-2.40
2018-03-21T17:05:11.044Z,-2.40
2018-03-21T17:07:38.688Z,-2.50
2018-03-21T17:10:06.265Z,-2.60
2018-03-21T17:12:34.619Z,-2.80
2018-03-21T17:15:02.426Z,-2.80
2018-03-21T17:17:30.872Z,-3.00
2018-03-21T17:19:58.432Z,-3.00
2018-03-21T17:22:26.029Z,-3.10
2018-03-21T17:24:54.402Z,-3.10
2018-03-21T17:27:22.838Z,-3.40
2018-03-21T17:29:51.000Z,-3.40
2018-03-21T17:32:18.573Z,-3.50
2018-03-21T17:34:46.318Z,-3.40
2018-03-21T17:37:13.920Z,-3.30
2018-03-21T17:39:42.262Z,-3.20
2018-03-21T17:42:09.825Z,-3.30
2018-03-21T17:44:37.791Z,-3.40
2018-03-21T17:47:05.450Z,-3.40
2018-03-21T17:49:33.020Z,-3.50
2018-03-21T17:52:00.680Z,-3.60
2018-03-21T17:54:28.281Z,-3.60
2018-03-21T17:56:56.607Z,-3.80
2018-03-21T17:59:24.573Z,-3.80
2018-03-21T18:01:52.243Z,-3.90
2018-03-21T18:04:19.998Z,-4.00
2018-03-21T18:06:47.916Z,-4.00
2018-03-21T18:09:15.485Z,-4.00
2018-03-21T18:11:43.826Z,-4.00
2018-03-21T18:14:11.477Z,-4.00
2018-03-21T18:16:39.057Z,-4.10
2018-03-21T18:19:07.393Z,-4.20
2018-03-21T18:21:35.007Z,-4.20
2018-03-21T18:24:04.051Z,-4.40
2018-03-21T18:26:32.776Z,-4.40
2018-03-21T18:29:00.546Z,-4.30
2018-03-21T18:31:28.171Z,-4.30
2018-03-21T18:33:56.333Z,-4.50
2018-03-21T18:36:23.960Z,-4.60
2018-03-21T18:38:51.526Z,-4.60
2018-03-21T18:41:19.312Z,-4.80
2018-03-21T18:43:47.176Z,-4.90
2018-03-21T18:46:14.764Z,-4.90
2018-03-21T18:48:42.403Z,-4.90
2018-03-21T18:51:10.206Z,-5.00
2018-03-21T18:53:38.723Z,-5.10
2018-03-21T18:56:06.287Z,-5.10
2018-03-21T18:58:34.173Z,-5.30
2018-03-21T19:01:01.733Z,-5.60
2018-03-21T19:03:29.497Z,-5.60
2018-03-21T19:05:58.274Z,-5.60
2018-03-21T19:08:26.027Z,-5.70
2018-03-21T19:10:53.983Z,-5.70
2018-03-21T19:13:21.969Z,-5.70
2018-03-21T19:15:49.753Z,-5.70
2018-03-21T19:18:17.748Z,-5.80
2018-03-21T19:20:46.892Z,-6.00
2018-03-21T19:23:14.700Z,-6.00
2018-03-21T19:25:42.730Z,-6.00
2018-03-21T19:28:10.488Z,-5.90
2018-03-21T19:30:38.258Z,-5.90
2018-03-21T19:33:05.832Z,-5.90
2018-03-21T19:35:33.538Z,-5.90
2018-03-21T19:38:01.742Z,-6.00
2018-03-21T19:40:29.314Z,-6.10
2018-03-21T19:42:57.148Z,-6.10
2018-03-21T19:45:24.835Z,-6.10
2018-03-21T19:47:52.432Z,-6.10
2018-03-21T19:50:20.564Z,-6.10
2018-03-21T19:52:48.177Z,-6.20
2018-03-21T19:55:15.790Z,-6.40
2018-03-21T19:57:43.923Z,-6.50
2018-03-21T20:00:12.554Z,-6.80
2018-03-21T20:02:40.679Z,-6.90
2018-03-21T20:05:08.868Z,-6.80
2018-03-21T20:07:36.649Z,-6.80
2018-03-21T20:10:04.269Z,-6.70
2018-03-21T20:12:32.379Z,-6.70
2018-03-21T20:15:00.039Z,-7.00
2018-03-21T20:17:27.611Z,-7.00
2018-03-21T20:19:55.398Z,-7.00
2018-03-21T20:22:23.979Z,-7.30
2018-03-21T20:24:51.617Z,-7.30
2018-03-21T20:27:19.412Z,-7.40
2018-03-21T20:29:47.234Z,-7.60
2018-03-21T20:32:15.301Z,-7.60
2018-03-21T20:34:43.087Z,-7.50
2018-03-21T20:37:10.655Z,-7.60
2018-03-21T20:39:38.314Z,-7.80
2018-03-21T20:42:06.187Z,-7.80
2018-03-21T20:44:33.763Z,-7.70
2018-03-21T20:47:01.345Z,-7.80
2018-03-21T20:49:29.184Z,-8.00
2018-03-21T20:51:57.510Z,-7.90
2018-03-21T20:54:25.094Z,-7.90
2018-03-21T20:56:52.804Z,-8.00
2018-03-21T20:59:20.599Z,-8.10
2018-03-21T21:01:48.161Z,-8.00
2018-03-21T21:04:15.789Z,-8.00
2018-03-21T21:06:44.435Z,-8.40
2018-03-21T21:09:12.819Z,-8.40
2018-03-21T21:11:40.744Z,-8.40
2018-03-21T21:14:08.526Z,-8.30
2018-03-21T21:16:36.160Z,-8.40
2018-03-21T21:19:03.794Z,-8.70
2018-03-21T21:21:32.133Z,-8.80
2018-03-21T21:23:59.694Z,-8.80
2018-03-21T21:26:27.292Z,-8.80
2018-03-21T21:28:54.860Z,-8.60
2018-03-21T21:31:22.450Z,-8.90
2018-03-21T21:33:50.074Z,-9.20
2018-03-21T21:36:17.634Z,-9.20
2018-03-21T21:38:45.307Z,-9.00
2018-03-21T21:41:12.911Z,-8.90
2018-03-21T21:43:40.982Z,-8.90
2018-03-21T21:46:08.551Z,-9.00
2018-03-21T21:48:36.157Z,-9.00
2018-03-21T21:51:03.923Z,-9.00
2018-03-21T21:53:31.490Z,-9.00
2018-03-21T21:55:59.119Z,-9.20
2018-03-21T21:58:26.679Z,-9.10
2018-03-21T22:00:54.252Z,-9.00
2018-03-21T22:03:22.078Z,-8.90
2018-03-21T22:05:50.442Z,-8.90
2018-03-21T22:08:18.193Z,-8.90
2018-03-21T22:10:45.826Z,-9.00
2018-03-21T22:13:14.402Z,-9.10
2018-03-21T22:15:42.345Z,-9.10
2018-03-21T22:18:10.239Z,-9.10
2018-03-21T22:20:37.816Z,-9.10
2018-03-21T22:23:05.546Z,-9.10
2018-03-21T22:25:33.307Z,-9.30
2018-03-21T22:28:00.869Z,-9.20
2018-03-21T22:30:28.415Z,-9.20
2018-03-21T22:32:56.225Z,-9.20
2018-03-21T22:35:23.831Z,-9.30
2018-03-21T22:37:51.384Z,-9.40
2018-03-21T22:40:19.895Z,-9.90
2018-03-21T22:42:47.480Z,-9.90
2018-03-21T22:45:15.245Z,-9.80
2018-03-21T22:47:43.071Z,-9.60
2018-03-21T22:50:10.770Z,-9.50
2018-03-21T22:52:38.326Z,-9.70
2018-03-21T22:55:05.920Z,-9.70
2018-03-21T22:57:33.471Z,-9.70
2018-03-21T23:00:01.029Z,-9.80
2018-03-21T23:02:29.378Z,-9.80
2018-03-21T23:04:56.962Z,-9.80
2018-03-21T23:07:26.112Z,-9.80
2018-03-21T23:09:53.867Z,-9.80
2018-03-21T23:12:21.434Z,-9.70
2018-03-21T23:14:49.279Z,-9.90
2018-03-21T23:17:16.883Z,-10.00
2018-03-21T23:19:44.609Z,-10.00
2018-03-21T23:22:12.184Z,-10.00
2018-03-21T23:24:39.805Z,-10.00
2018-03-21T23:27:08.386Z,-9.90
2018-03-21T23:29:36.698Z,-9.90
2018-03-21T23:32:04.429Z,-9.80
2018-03-21T23:34:32.750Z,-9.80
2018-03-21T23:37:00.293Z,-9.90
2018-03-21T23:39:28.022Z,-9.70
2018-03-21T23:41:56.342Z,-9.90
2018-03-21T23:44:23.891Z,-9.90
2018-03-21T23:46:51.757Z,-9.80
2018-03-21T23:49:19.665Z,-9.70
2018-03-21T23:51:47.282Z,-9.60
2018-03-21T23:54:14.914Z,-9.50
2018-03-21T23:56:42.466Z,-9.50
2018-03-21T23:59:11.057Z,-9.50
